Time;durP1;ratioP1;P1;durP2;ratioP2;P2;SDS_P1;SDS_P2;PMS_P1;PMS_P2;Temp;Humidity;BMP_temperature;BMP_pressure;BME280_temperature;BME280_humidity;BME280_pressure;Samples;Min_cycle;Max_cycle;Signal;HPM_P1;HPM_P2
2023/04/14 00:00:57;;;;;;;5.50;3.90;;;;;;;12.12;70.48;99744.32;108028;1256;75340;-85
2023/04/14 00:03:31;;;;;;;5.60;4.00;;;;;;;12.10;70.55;99747.34;107949;1256;72042;-85
2023/04/14 00:05:59;;;;;;;7.90;4.00;;;;;;;12.10;70.53;99749.31;107971;1256;73028;-83
2023/04/14 00:08:29;;;;;;;6.80;4.10;;;;;;;12.11;70.68;99748.29;108003;1258;62207;-83
2023/04/14 00:10:58;;;;;;;6.30;4.10;;;;;;;12.12;70.67;99751.98;108000;1255;61222;-85
2023/04/14 00:13:27;;;;;;;6.00;4.10;;;;;;;12.15;70.79;99754.67;107981;1256;74846;-85
2023/04/14 00:15:58;;;;;;;7.30;4.10;;;;;;;12.18;70.74;99753.98;108052;1256;73718;-83
2023/04/14 00:18:26;;;;;;;7.30;4.10;;;;;;;12.24;70.78;99754.14;107944;1255;73871;-84
2023/04/14 00:20:55;;;;;;;7.20;4.00;;;;;;;12.27;70.78;99754.42;107921;1254;63171;-85
2023/04/14 00:23:25;;;;;;;6.20;4.60;;;;;;;12.28;70.80;99753.34;108023;1255;61321;-84
2023/04/14 00:25:53;;;;;;;8.50;4.70;;;;;;;12.27;70.83;99751.15;108050;1256;75309;-84
2023/04/14 00:28:22;;;;;;;6.80;4.40;;;;;;;12.26;70.70;99751.48;107962;1256;71206;-83
2023/04/14 00:30:59;;;;;;;9.10;4.40;;;;;;;12.26;70.72;99750.78;108004;1258;72970;-83
2023/04/14 00:33:29;;;;;;;6.50;4.30;;;;;;;12.25;70.63;99751.61;108013;1255;63224;-84
2023/04/14 00:35:57;;;;;;;6.40;4.00;;;;;;;12.19;70.34;99748.41;108045;1254;61114;-84
2023/04/14 00:38:26;;;;;;;7.30;4.40;;;;;;;12.12;70.15;99750.05;108042;1256;74711;-84
2023/04/14 00:40:54;;;;;;;7.40;4.20;;;;;;;12.07;70.06;99755.09;107978;1256;73814;-84
2023/04/14 00:43:23;;;;;;;6.30;3.80;;;;;;;12.02;69.93;99755.11;108157;1256;72812;-85
2023/04/14 00:45:54;;;;;;;6.60;4.10;;;;;;;11.97;69.80;99756.98;108591;1254;62237;-86
2023/04/14 00:48:22;;;;;;;5.40;4.10;;;;;;;11.90;69.69;99757.42;108592;1256;59054;-86
2023/04/14 00:50:51;;;;;;;5.50;4.00;;;;;;;11.85;69.66;99756.95;108236;1256;74666;-85
2023/04/14 00:53:20;;;;;;;6.70;4.50;;;;;;;11.82;69.69;99755.49;107961;1256;73648;-86
2023/04/14 00:55:50;;;;;;;6.00;4.30;;;;;;;11.80;69.68;99755.10;107917;1256;71900;-85
2023/04/14 00:58:21;;;;;;;8.10;4.40;;;;;;;11.77;69.57;99756.15;107738;1256;61160;-86
2023/04/14 01:00:54;;;;;;;6.20;4.40;;;;;;;11.73;69.67;99763.84;108007;1255;61250;-85
2023/04/14 01:03:25;;;;;;;6.10;4.40;;;;;;;11.71;69.78;99766.69;108034;1255;75234;-85
2023/04/14 01:05:58;;;;;;;5.70;4.40;;;;;;;11.73;69.86;99766.52;108115;1258;73093;-84
2023/04/14 01:08:27;;;;;;;6.40;4.70;;;;;;;11.72;69.72;99771.45;108050;1254;71047;-84
2023/04/14 01:11:34;;;;;;;7.00;4.50;;;;;;;11.71;69.73;99772.31;107924;1254;61473;-85
2023/04/14 01:14:10;;;;;;;8.30;4.40;;;;;;;11.71;69.74;99772.53;107678;1256;61362;-84
2023/04/14 01:16:40;;;;;;;5.80;4.80;;;;;;;11.69;69.84;99777.16;107721;1256;75649;-83
2023/04/14 01:19:44;;;;;;;7.30;5.10;;;;;;;11.63;69.95;99776.25;108062;1256;70973;-86
2023/04/14 01:22:13;;;;;;;7.70;5.20;;;;;;;11.57;70.25;99773.91;108326;1255;72052;-84
2023/04/14 01:24:41;;;;;;;7.20;5.10;;;;;;;11.50;70.46;99775.56;108340;1255;61825;-86
2023/04/14 01:27:40;;;;;;;8.00;4.50;;;;;;;11.46;70.72;99773.89;108532;1256;59841;-85
2023/04/14 01:30:18;;;;;;;8.80;4.90;;;;;;;11.46;71.07;99777.06;108586;1256;72438;-85
2023/04/14 01:32:49;;;;;;;6.70;4.70;;;;;;;11.46;71.23;99767.91;108431;1255;70687;-87
2023/04/14 01:35:30;;;;;;;8.30;5.20;;;;;;;11.44;71.40;99770.38;108143;1256;72670;-87
2023/04/14 01:38:04;;;;;;;6.10;4.60;;;;;;;11.42;71.65;99770.03;108161;1256;61977;-86
2023/04/14 01:40:32;;;;;;;8.20;5.40;;;;;;;11.40;71.78;99770.31;108075;1256;61212;-86
2023/04/14 01:43:03;;;;;;;7.00;4.80;;;;;;;11.36;71.99;99770.89;108097;1258;73815;-86
2023/04/14 01:45:35;;;;;;;6.80;5.20;;;;;;;11.33;72.16;99771.56;107941;1261;71714;-85
2023/04/14 01:48:05;;;;;;;5.90;4.90;;;;;;;11.33;72.35;99772.95;108011;1256;72727;-86
2023/04/14 01:50:33;;;;;;;7.80;5.20;;;;;;;11.32;72.49;99771.94;107979;1254;61133;-88
2023/04/14 01:53:06;;;;;;;7.80;5.00;;;;;;;11.31;72.55;99772.53;107946;1254;60763;-86
2023/04/14 01:55:36;;;;;;;9.00;5.20;;;;;;;11.29;72.58;99767.63;107972;1256;74524;-85
2023/04/14 01:58:04;;;;;;;6.90;5.10;;;;;;;11.28;72.59;99768.33;108016;1255;72038;-86
2023/04/14 02:00:34;;;;;;;7.20;5.30;;;;;;;11.28;72.59;99771.23;107725;1256;71832;-85
2023/04/14 02:03:04;;;;;;;9.10;5.60;;;;;;;11.29;72.64;99771.21;107933;1255;62936;-85
2023/04/14 02:05:34;;;;;;;7.60;5.10;;;;;;;11.29;72.62;99773.52;107874;1256;61183;-85
2023/04/14 02:08:05;;;;;;;8.50;5.70;;;;;;;11.28;72.50;99773.67;108005;1256;74411;-87
2023/04/14 02:10:34;;;;;;;7.70;5.50;;;;;;;11.28;72.35;99777.27;107837;1256;72683;-84
2023/04/14 02:13:06;;;;;;;8.30;6.00;;;;;;;11.29;72.35;99775.33;104447;1255;5285730;-85
2023/04/14 02:15:47;;;;;;;8.90;5.60;;;;;;;11.31;72.21;99775.81;109108;1255;59431;-85
2023/04/14 02:18:21;;;;;;;8.00;5.70;;;;;;;11.31;71.99;99778.10;108281;1260;73108;-85
2023/04/14 02:20:51;;;;;;;7.30;5.00;;;;;;;11.32;72.06;99781.30;107977;1256;72978;-85
2023/04/14 02:23:27;;;;;;;8.40;5.10;;;;;;;11.30;71.95;99785.70;107937;1255;72074;-85
2023/04/14 02:26:08;;;;;;;7.30;5.20;;;;;;;11.26;71.88;99787.92;108016;1255;62235;-87
2023/04/14 02:28:42;;;;;;;7.10;5.40;;;;;;;11.26;71.96;99787.88;108027;1258;61208;-85
2023/04/14 02:31:10;;;;;;;7.80;5.80;;;;;;;11.25;71.89;99792.59;107874;1255;74050;-85
2023/04/14 02:33:39;;;;;;;7.60;5.50;;;;;;;11.22;71.79;99799.77;107965;1256;73987;-87
2023/04/14 02:36:13;;;;;;;7.10;5.80;;;;;;;11.19;71.89;99800.49;107737;1256;73531;-86
2023/04/14 02:38:44;;;;;;;8.90;6.40;;;;;;;11.18;71.90;99800.92;107978;1255;61978;-85
2023/04/14 02:41:23;;;;;;;8.60;6.20;;;;;;;11.21;71.87;99805.23;108003;1256;61537;-87
2023/04/14 02:44:12;;;;;;;8.00;5.80;;;;;;;11.21;71.82;99805.42;107958;1256;75849;-85
2023/04/14 02:46:41;;;;;;;9.10;6.10;;;;;;;11.22;71.82;99808.42;108016;1256;71377;-85
2023/04/14 02:49:10;;;;;;;8.30;5.80;;;;;;;11.19;71.85;99809.52;107954;1256;73437;-84
2023/04/14 02:51:40;;;;;;;9.30;6.10;;;;;;;11.18;71.78;99814.82;107866;1256;61869;-87
2023/04/14 02:54:09;;;;;;;8.20;6.50;;;;;;;11.19;71.84;99819.85;107844;1256;61318;-85
2023/04/14 02:56:45;;;;;;;8.50;6.10;;;;;;;11.17;71.77;99822.58;107970;1260;74848;-88
2023/04/14 02:59:13;;;;;;;9.50;7.00;;;;;;;11.17;71.84;99823.76;107804;1255;72912;-86
2023/04/14 03:02:03;;;;;;;7.60;5.90;;;;;;;11.14;71.82;99825.17;108083;1254;71636;-86
2023/04/14 03:04:34;;;;;;;7.90;6.30;;;;;;;11.14;71.99;99828.21;107813;1256;62908;-85
2023/04/14 03:07:05;;;;;;;9.20;6.50;;;;;;;11.14;71.99;99823.79;107931;1255;61158;-85
2023/04/14 03:09:34;;;;;;;9.10;7.00;;;;;;;11.11;72.09;99826.79;107751;1256;72657;-85
2023/04/14 03:12:11;;;;;;;7.30;5.70;;;;;;;11.10;72.14;99831.34;107946;1256;72355;-85
2023/04/14 03:14:42;;;;;;;8.50;6.60;;;;;;;11.09;72.10;99831.19;107666;1260;74012;-85
2023/04/14 03:17:13;;;;;;;7.50;6.00;;;;;;;11.09;72.13;99834.98;107882;1256;62596;-86
2023/04/14 03:19:47;;;;;;;8.70;6.10;;;;;;;11.08;72.32;99838.61;107932;1256;61131;-85
2023/04/14 03:22:25;;;;;;;8.70;7.00;;;;;;;11.06;72.30;99838.70;107636;1262;73715;-87
2023/04/14 03:24:57;;;;;;;9.00;6.40;;;;;;;11.04;72.37;99842.54;107688;1259;73123;-87
2023/04/14 03:27:33;;;;;;;10.30;6.50;;;;;;;11.04;72.41;99843.52;108038;1258;70764;-86
2023/04/14 03:30:05;;;;;;;11.20;6.60;;;;;;;11.04;72.51;99846.67;107771;1261;61716;-87
2023/04/14 03:32:40;;;;;;;8.70;6.90;;;;;;;11.06;72.66;99850.09;107748;1256;61109;-86
2023/04/14 03:35:15;;;;;;;9.30;7.60;;;;;;;11.08;72.58;99852.79;107958;1256;73780;-86
2023/04/14 03:37:43;;;;;;;8.80;7.00;;;;;;;11.08;72.63;99852.35;107961;1256;70771;-85
2023/04/14 03:40:17;;;;;;;9.60;7.10;;;;;;;11.08;72.66;99854.34;107889;1256;72220;-87
2023/04/14 03:42:47;;;;;;;8.50;6.40;;;;;;;11.09;72.75;99854.91;108463;1256;61165;-87
2023/04/14 03:45:20;;;;;;;9.60;7.20;;;;;;;11.09;72.73;99858.17;108426;1256;61162;-87
2023/04/14 03:47:52;;;;;;;8.70;7.00;;;;;;;11.06;72.85;99856.23;108026;1256;74421;-86
2023/04/14 03:50:21;;;;;;;9.80;7.60;;;;;;;11.04;72.91;99856.28;108016;1256;74079;-87
2023/04/14 03:52:52;;;;;;;8.40;7.10;;;;;;;11.05;73.07;99855.59;107964;1256;73474;-87
2023/04/14 03:55:20;;;;;;;10.90;7.70;;;;;;;11.03;73.03;99859.55;107941;1256;62249;-89
2023/04/14 03:57:49;;;;;;;9.90;7.60;;;;;;;11.03;73.02;99859.56;107965;1256;61715;-87
2023/04/14 04:00:20;;;;;;;9.70;7.70;;;;;;;11.03;73.30;99858.70;107980;1256;76055;-85
2023/04/14 04:03:06;;;;;;;11.60;8.40;;;;;;;11.07;73.37;99863.02;107795;1261;72730;-86
2023/04/14 04:05:45;;;;;;;10.10;7.90;;;;;;;11.11;73.46;99867.05;107785;1256;72005;-86
2023/04/14 04:08:40;;;;;;;10.10;7.80;;;;;;;11.13;73.53;99874.41;107813;1254;61180;-86
2023/04/14 04:11:41;;;;;;;11.30;8.80;;;;;;;11.13;73.44;99883.66;107828;1260;61544;-87
2023/04/14 04:14:40;;;;;;;9.60;8.00;;;;;;;11.15;73.60;99881.65;107781;1256;74311;-86
2023/04/14 04:17:17;;;;;;;10.60;7.90;;;;;;;11.15;73.62;99884.87;107863;1256;73528;-85
2023/04/14 04:19:51;;;;;;;10.30;8.20;;;;;;;11.13;73.62;99884.89;108038;1254;72743;-87
2023/04/14 04:22:30;;;;;;;10.90;8.10;;;;;;;11.12;73.64;99880.13;107995;1256;61215;-87
2023/04/14 04:25:25;;;;;;;12.30;8.50;;;;;;;11.10;73.66;99883.90;108036;1256;61739;-88
2023/04/14 04:28:27;;;;;;;11.00;8.10;;;;;;;11.03;73.76;99879.13;107866;1257;75428;-87
2023/04/14 04:31:01;;;;;;;10.50;8.80;;;;;;;11.03;73.94;99882.48;107998;1256;73742;-86
2023/04/14 04:33:45;;;;;;;14.70;9.60;;;;;;;11.04;73.95;99882.37;107705;1257;72894;-86
2023/04/14 04:36:34;;;;;;;11.50;9.20;;;;;;;11.04;74.03;99883.33;107956;1256;62307;-86
2023/04/14 04:39:24;;;;;;;13.10;8.90;;;;;;;11.05;74.07;99889.73;107939;1255;61176;-86
2023/04/14 04:42:05;;;;;;;10.90;9.20;;;;;;;11.09;74.17;99892.23;107978;1258;75947;-86
2023/04/14 04:44:55;;;;;;;12.20;9.50;;;;;;;11.10;74.18;99898.00;107990;1260;71765;-86
2023/04/14 04:47:35;;;;;;;12.70;9.40;;;;;;;11.10;74.17;99898.05;107973;1257;71034;-86
2023/04/14 04:50:08;;;;;;;12.20;9.70;;;;;;;11.11;74.12;99901.04;108000;1260;62716;-87
2023/04/14 04:52:39;;;;;;;11.60;9.20;;;;;;;11.12;74.16;99902.74;107807;1258;61470;-86
2023/04/14 04:55:08;;;;;;;13.10;9.50;;;;;;;11.15;74.14;99904.98;108024;1256;76352;-86
2023/04/14 04:57:37;;;;;;;12.10;9.10;;;;;;;11.16;74.12;99908.33;108044;1254;73688;-88
2023/04/14 05:00:07;;;;;;;13.00;9.60;;;;;;;11.13;74.19;99911.77;108054;1257;72698;-86
2023/04/14 05:02:38;;;;;;;12.70;9.70;;;;;;;11.11;74.00;99914.23;108034;1254;62169;-87
2023/04/14 05:05:08;;;;;;;11.50;9.30;;;;;;;11.15;74.12;99916.63;108083;1256;61074;-85
2023/04/14 05:07:38;;;;;;;14.10;10.30;;;;;;;11.17;74.16;99915.00;108116;1254;74546;-86
2023/04/14 05:10:10;;;;;;;12.60;9.70;;;;;;;11.19;74.09;99915.48;108562;1255;72758;-77
2023/04/14 05:12:40;;;;;;;11.30;9.70;;;;;;;11.22;74.07;99918.88;108804;1256;71496;-87
2023/04/14 05:15:09;;;;;;;11.50;9.50;;;;;;;11.24;74.07;99920.36;108362;1258;60035;-87
2023/04/14 05:17:39;;;;;;;12.40;9.40;;;;;;;11.28;74.05;99921.63;107993;1256;61111;-88
2023/04/14 05:20:09;;;;;;;12.80;9.90;;;;;;;11.29;73.97;99924.61;108037;1257;74954;-86
2023/04/14 05:22:38;;;;;;;11.60;9.40;;;;;;;11.30;73.99;99924.82;108032;1258;72370;-86
2023/04/14 05:25:06;;;;;;;11.90;10.10;;;;;;;11.30;73.77;99930.91;108009;1257;71977;-85
2023/04/14 05:27:36;;;;;;;13.60;9.90;;;;;;;11.29;73.86;99934.56;108047;1257;63637;-87
2023/04/14 05:30:06;;;;;;;12.00;9.90;;;;;;;11.31;73.82;99937.49;108012;1256;61128;-86
2023/04/14 05:32:35;;;;;;;11.30;9.60;;;;;;;11.38;73.95;99939.05;108046;1256;73366;-86
2023/04/14 05:35:04;;;;;;;12.40;9.80;;;;;;;11.42;73.67;99940.42;107982;1259;72149;-87
2023/04/14 05:37:32;;;;;;;11.90;9.60;;;;;;;11.41;73.62;99939.77;108028;1258;71206;-86
2023/04/14 05:40:03;;;;;;;12.30;10.30;;;;;;;11.39;73.39;99941.19;108025;1254;61673;-87
2023/04/14 05:42:35;;;;;;;13.90;10.50;;;;;;;11.39;73.35;99942.67;108072;1256;61104;-86
2023/04/14 05:45:05;;;;;;;12.70;10.60;;;;;;;11.41;73.21;99941.17;107978;1258;74617;-88
2023/04/14 05:47:33;;;;;;;12.10;9.60;;;;;;;11.41;73.07;99939.19;108048;1259;73756;-87
2023/04/14 05:50:04;;;;;;;12.50;10.10;;;;;;;11.43;73.13;99943.41;108011;1255;71882;-86
2023/04/14 05:52:33;;;;;;;13.10;10.60;;;;;;;11.42;73.02;99941.97;107896;1256;62003;-86
2023/04/14 05:55:01;;;;;;;12.80;10.50;;;;;;;11.42;73.10;99946.67;107831;1255;61139;-85
2023/04/14 05:57:30;;;;;;;16.50;11.10;;;;;;;11.44;73.04;99945.27;108094;1259;75177;-86
2023/04/14 05:59:58;;;;;;;15.20;11.10;;;;;;;11.45;73.19;99950.71;108023;1256;71950;-86
2023/04/14 06:02:31;;;;;;;15.00;10.80;;;;;;;11.46;73.20;99956.70;108050;1259;72946;-85
2023/04/14 06:05:00;;;;;;;12.60;10.20;;;;;;;11.51;73.22;99962.83;108104;1255;61235;-88
2023/04/14 06:07:32;;;;;;;14.70;11.30;;;;;;;11.54;73.07;99967.55;108038;1257;61214;-87
2023/04/14 06:10:00;;;;;;;15.80;11.60;;;;;;;11.57;73.26;99967.98;108072;1258;75870;-86
2023/04/14 06:12:31;;;;;;;13.80;10.90;;;;;;;11.63;73.15;99969.70;107971;1258;73640;-88
2023/04/14 06:15:00;;;;;;;15.40;11.20;;;;;;;11.64;73.01;99969.85;108016;1257;71391;-87
2023/04/14 06:17:32;;;;;;;13.30;10.40;;;;;;;11.62;72.90;99971.80;108003;1256;61103;-87
2023/04/14 06:20:03;;;;;;;12.90;10.40;;;;;;;11.62;72.91;99975.70;108061;1255;61121;-87
2023/04/14 06:22:32;;;;;;;13.20;10.30;;;;;;;11.60;72.86;99975.28;108106;1257;73618;-88
2023/04/14 06:25:01;;;;;;;14.10;11.10;;;;;;;11.57;72.93;99970.33;108079;1257;73595;-87
2023/04/14 06:27:31;;;;;;;14.90;11.70;;;;;;;11.58;73.07;99973.73;108022;1256;72909;-88
2023/04/14 06:30:00;;;;;;;16.20;12.00;;;;;;;11.59;73.15;99974.38;108041;1257;61573;-86
2023/04/14 06:32:29;;;;;;;11.80;9.30;;;;;;;11.66;73.35;99977.48;108072;1257;61130;-86
2023/04/14 06:35:43;;;;;;;;;;;;;;;;;;;;;
2023/04/14 06:38:44;;;;;;;15.40;11.40;;;;;;;11.75;73.25;99982.20;108766;1256;73725;-86
2023/04/14 06:41:14;;;;;;;12.10;10.60;;;;;;;11.76;73.27;99980.20;108768;1256;71824;-88
2023/04/14 06:43:58;;;;;;;12.40;10.60;;;;;;;11.76;73.29;99987.80;108487;1256;61150;-88
2023/04/14 06:46:27;;;;;;;12.50;10.60;;;;;;;11.77;73.32;99992.71;108075;1255;61191;-89
2023/04/14 06:49:01;;;;;;;12.80;10.40;;;;;;;11.77;73.25;99990.95;108094;1255;73688;-88
2023/04/14 06:51:32;;;;;;;12.00;9.50;;;;;;;11.78;73.17;99992.34;108075;1256;73743;-87
2023/04/14 06:54:01;;;;;;;12.10;9.70;;;;;;;11.76;73.09;99991.98;108044;1260;71723;-88
2023/04/14 06:56:29;;;;;;;13.20;10.50;;;;;;;11.74;73.09;99995.99;107966;1257;62082;-85
2023/04/14 06:58:59;;;;;;;12.10;10.30;;;;;;;11.75;73.21;100001.08;108104;1255;61167;-85
2023/04/14 07:01:27;;;;;;;12.50;10.00;;;;;;;11.72;73.21;99998.69;108077;1257;74848;-86
2023/04/14 07:03:56;;;;;;;11.20;9.50;;;;;;;11.68;73.14;100000.27;108073;1254;72310;-86
2023/04/14 07:06:26;;;;;;;11.60;9.80;;;;;;;11.69;73.28;100005.35;108084;1260;73767;-88
2023/04/14 07:08:55;;;;;;;12.40;10.30;;;;;;;11.71;73.44;100007.58;108027;1257;61295;-86
2023/04/14 07:11:24;;;;;;;12.60;10.60;;;;;;;11.77;73.58;100011.39;108017;1257;61151;-86
2023/04/14 07:13:53;;;;;;;14.30;11.00;;;;;;;11.85;73.55;100011.09;108034;1257;75446;-88
2023/04/14 07:16:24;;;;;;;13.00;10.90;;;;;;;11.88;73.46;100013.00;107954;1257;73744;-84
2023/04/14 07:18:55;;;;;;;12.20;10.50;;;;;;;11.93;73.31;100013.29;107899;1254;73843;-85
2023/04/14 07:21:23;;;;;;;13.50;10.50;;;;;;;11.99;73.41;100014.80;108005;1258;63212;-86
2023/04/14 07:23:53;;;;;;;12.80;10.60;;;;;;;12.00;73.31;100011.58;108073;1255;61141;-85
2023/04/14 07:26:22;;;;;;;12.60;10.60;;;;;;;12.02;73.29;100011.99;108023;1254;74356;-86
2023/04/14 07:28:50;;;;;;;13.30;10.80;;;;;;;12.07;73.29;100017.04;108096;1254;72530;-87
2023/04/14 07:31:21;;;;;;;12.10;10.10;;;;;;;12.14;73.34;100013.13;108075;1254;72147;-86
2023/04/14 07:33:51;;;;;;;11.50;9.40;;;;;;;12.20;73.33;100015.17;107999;1255;61967;-85
2023/04/14 07:36:22;;;;;;;12.90;9.80;;;;;;;12.26;73.36;100011.52;108063;1254;60998;-86
2023/04/14 07:38:53;;;;;;;12.70;10.00;;;;;;;12.32;73.08;100014.95;108061;1257;75659;-86
2023/04/14 07:41:23;;;;;;;13.30;9.70;;;;;;;12.35;72.95;100013.48;108043;1258;71614;-87
2023/04/14 07:43:54;;;;;;;12.10;10.30;;;;;;;12.36;72.56;100013.09;108082;1257;71719;-87
2023/04/14 07:46:22;;;;;;;13.80;10.80;;;;;;;12.35;72.36;100016.27;108127;1256;63253;-86
2023/04/14 07:48:51;;;;;;;13.10;10.90;;;;;;;12.32;72.23;100014.89;108079;1255;61203;-86
2023/04/14 07:51:22;;;;;;;15.00;11.60;;;;;;;12.31;72.24;100012.45;108073;1255;74541;-86
2023/04/14 07:53:51;;;;;;;13.60;10.70;;;;;;;12.33;72.43;100012.21;108023;1257;73976;-87
2023/04/14 07:56:21;;;;;;;13.50;10.30;;;;;;;12.40;72.52;100013.54;108061;1259;71795;-86
2023/04/14 07:58:51;;;;;;;13.40;10.30;;;;;;;12.49;72.38;100010.52;108057;1257;61599;-86
2023/04/14 08:01:20;;;;;;;12.40;9.80;;;;;;;12.50;72.06;100010.40;108026;1257;60072;-87
2023/04/14 08:03:49;;;;;;;10.30;8.80;;;;;;;12.51;72.07;100011.52;108029;1259;75497;-87
2023/04/14 08:06:19;;;;;;;14.40;11.00;;;;;;;12.52;71.87;100015.90;108152;1254;71377;-85
2023/04/14 08:08:51;;;;;;;13.90;10.50;;;;;;;12.53;71.82;100015.73;108723;1257;72634;-86
2023/04/14 08:11:19;;;;;;;13.00;10.50;;;;;;;12.54;71.69;100017.54;108526;1255;59937;-87
2023/04/14 08:13:51;;;;;;;12.20;9.70;;;;;;;12.54;71.65;100018.09;108180;1254;60289;-85
2023/04/14 08:16:21;;;;;;;12.40;10.30;;;;;;;12.54;71.78;100025.20;108006;1259;73718;-85
2023/04/14 08:18:51;;;;;;;12.40;9.70;;;;;;;12.59;71.85;100025.27;108300;1257;74056;-86
2023/04/14 08:21:22;;;;;;;13.10;10.90;;;;;;;12.64;71.66;100026.66;108221;1260;71750;-87
2023/04/14 08:23:52;;;;;;;12.60;10.50;;;;;;;12.72;71.72;100029.42;108474;1255;61192;-86
2023/04/14 08:26:21;;;;;;;12.50;10.00;;;;;;;12.82;71.59;100031.52;108575;1254;58905;-86
2023/04/14 08:28:53;;;;;;;13.50;10.20;;;;;;;12.90;71.47;100032.98;108769;1255;72680;-85
2023/04/14 08:31:24;;;;;;;11.30;9.90;;;;;;;12.91;70.97;100039.87;108053;1254;71465;-85
2023/04/14 08:33:54;;;;;;;12.20;9.80;;;;;;;12.88;70.75;100040.50;108235;1254;73699;-86
2023/04/14 08:36:22;;;;;;;12.80;10.80;;;;;;;12.91;70.91;100041.44;108155;1257;63129;-86
2023/04/14 08:38:52;;;;;;;12.10;9.70;;;;;;;12.98;70.87;100040.40;108230;1256;61155;-87
2023/04/14 08:41:22;;;;;;;11.40;9.50;;;;;;;13.02;70.74;100042.29;108062;1254;75936;-86
2023/04/14 08:43:50;;;;;;;12.10;10.20;;;;;;;13.03;70.64;100043.66;108073;1257;71651;-88
2023/04/14 08:46:23;;;;;;;14.50;10.50;;;;;;;12.98;70.59;100040.61;108056;1254;72722;-88
2023/04/14 08:49:02;;;;;;;11.30;10.00;;;;;;;12.98;70.67;100038.31;107950;1254;62206;-87
2023/04/14 08:51:31;;;;;;;12.20;9.40;;;;;;;12.99;70.63;100034.81;108046;1256;61203;-86
2023/04/14 08:54:08;;;;;;;12.00;10.30;;;;;;;12.94;70.42;100029.51;107943;1257;76114;-87
2023/04/14 08:56:38;;;;;;;13.10;10.20;;;;;;;12.88;70.31;100025.92;108035;1257;72845;-86
2023/04/14 08:59:08;;;;;;;11.40;10.20;;;;;;;12.81;70.42;100024.66;107934;1255;72808;-88
2023/04/14 09:01:38;;;;;;;;;;;;;;;12.72;70.26;100026.85;108003;1256;63300;-88
2023/04/14 09:04:07;;;;;;;12.60;10.50;;;;;;;12.65;70.44;100028.31;107981;1260;61357;-88
2023/04/14 09:06:39;;;;;;;11.90;9.70;;;;;;;12.61;70.64;100032.80;107967;1254;74851;-87
2023/04/14 09:09:08;;;;;;;11.60;10.30;;;;;;;12.61;70.74;100029.52;108054;1254;73878;-86
2023/04/14 09:11:38;;;;;;;12.70;9.90;;;;;;;12.68;70.78;100030.80;107917;1255;73640;-87
2023/04/14 09:14:08;;;;;;;12.80;9.90;;;;;;;12.78;70.85;100027.38;108016;1258;61319;-87
2023/04/14 09:16:43;;;;;;;14.10;10.60;;;;;;;12.83;70.64;100030.70;108026;1254;61064;-87
2023/04/14 09:19:12;;;;;;;12.40;10.00;;;;;;;12.89;70.69;100029.71;107816;1255;73841;-87
2023/04/14 09:21:40;;;;;;;11.50;9.80;;;;;;;12.99;70.71;100039.30;107979;1254;73159;-88
2023/04/14 09:24:28;;;;;;;12.80;9.90;;;;;;;13.03;70.27;100037.33;108157;1254;70603;-87
2023/04/14 09:27:03;;;;;;;12.30;10.30;;;;;;;13.05;69.94;100039.30;107997;1254;61865;-85
2023/04/14 09:29:32;;;;;;;11.90;9.80;;;;;;;13.11;69.92;100041.37;108072;1254;61221;-87
2023/04/14 09:32:14;;;;;;;11.50;10.10;;;;;;;13.17;69.75;100044.56;108105;1254;75670;-87
2023/04/14 09:34:51;;;;;;;14.20;11.40;;;;;;;13.18;69.59;100046.54;108377;1254;73131;-81
2023/04/14 09:37:43;;;;;;;14.70;12.00;;;;;;;13.20;69.42;100042.83;108668;1254;71827;-86
2023/04/14 09:40:27;;;;;;;13.80;11.00;;;;;;;13.24;69.39;100049.82;108465;1254;61505;-86
2023/04/14 09:42:56;;;;;;;11.80;10.10;;;;;;;13.27;69.17;100051.46;108136;1254;61247;-87
2023/04/14 09:45:44;;;;;;;12.80;10.50;;;;;;;13.26;69.16;100052.77;108133;1256;75552;-87
2023/04/14 09:48:13;;;;;;;13.70;11.00;;;;;;;13.29;69.10;100053.70;108116;1254;72034;-87
2023/04/14 09:51:05;;;;;;;12.20;10.10;;;;;;;13.33;69.06;100060.17;108153;1257;72667;-88
2023/04/14 09:53:36;;;;;;;11.80;9.80;;;;;;;13.41;69.01;100062.12;107982;1256;61557;-88
2023/04/14 09:56:06;;;;;;;11.20;9.50;;;;;;;13.48;68.89;100066.48;108108;1256;61193;-87
2023/04/14 09:58:40;;;;;;;12.10;10.30;;;;;;;13.47;68.43;100068.70;108120;1256;74407;-88
2023/04/14 10:01:18;;;;;;;13.30;10.20;;;;;;;13.39;68.08;100069.43;108112;1256;73113;-87
2023/04/14 10:03:48;;;;;;;14.10;9.80;;;;;;;13.33;68.14;100071.29;108150;1256;71663;-87
2023/04/14 10:06:21;;;;;;;10.30;7.10;;;;;;;13.30;68.17;100073.63;108086;1255;61152;-88
2023/04/14 10:08:51;;;;;;;10.20;8.40;;;;;;;13.28;68.10;100078.79;108103;1255;61299;-88
2023/04/14 10:11:28;;;;;;;11.10;9.00;;;;;;;13.25;68.23;100078.66;108008;1255;74734;-87
2023/04/14 10:14:02;;;;;;;12.30;9.80;;;;;;;13.20;68.17;100082.61;108108;1256;72836;-88
2023/04/14 10:16:31;;;;;;;10.90;8.70;;;;;;;13.16;68.39;100083.95;108096;1255;71885;-86
2023/04/14 10:19:01;;;;;;;9.60;7.80;;;;;;;13.11;68.01;100087.49;108069;1255;62836;-87
2023/04/14 10:21:35;;;;;;;9.80;8.40;;;;;;;13.06;67.60;100091.73;108005;1255;61159;-89
2023/04/14 10:24:03;;;;;;;11.10;7.60;;;;;;;13.02;67.52;100092.84;108020;1257;75599;-89
2023/04/14 10:26:33;;;;;;;9.70;8.10;;;;;;;13.01;67.60;100088.09;107883;1256;72548;-87
2023/04/14 10:29:02;;;;;;;10.90;7.90;;;;;;;13.01;67.61;100089.21;108160;1255;72939;-87
2023/04/14 10:31:35;;;;;;;9.70;8.20;;;;;;;12.98;67.39;100093.33;108153;1256;60975;-89
2023/04/14 10:34:10;;;;;;;13.90;8.30;;;;;;;12.95;67.37;100098.39;108159;1255;61098;-88
2023/04/14 10:36:41;;;;;;;10.00;8.00;;;;;;;12.94;67.35;100097.27;108159;1256;75008;-89
2023/04/14 10:39:10;;;;;;;11.10;8.60;;;;;;;12.93;67.38;100098.19;108112;1255;72965;-88
2023/04/14 10:41:49;;;;;;;9.80;7.90;;;;;;;12.95;67.31;100104.45;108193;1255;73504;-87
2023/04/14 10:44:22;;;;;;;12.10;8.50;;;;;;;12.99;67.38;100105.09;108179;1256;62114;-86
2023/04/14 10:47:01;;;;;;;9.80;7.80;;;;;;;13.04;67.32;100109.92;108266;1255;61253;-86
2023/04/14 10:49:37;;;;;;;9.90;8.10;;;;;;;13.09;67.32;100113.41;108193;1257;74531;-87
2023/04/14 10:52:21;;;;;;;10.90;7.80;;;;;;;13.08;66.88;100112.51;108770;1255;71641;-87
2023/04/14 10:55:06;;;;;;;10.10;8.00;;;;;;;13.07;66.75;100113.49;108373;1256;73862;-88
2023/04/14 10:57:43;;;;;;;10.20;8.10;;;;;;;13.06;66.66;100110.39;108304;1256;61307;-87
2023/04/14 11:00:23;;;;;;;9.80;7.70;;;;;;;13.07;66.73;100110.02;108131;1254;61119;-88
2023/04/14 11:03:15;;;;;;;10.40;7.70;;;;;;;13.07;66.67;100111.83;108642;1254;75009;-88
2023/04/14 11:05:53;;;;;;;10.50;8.10;;;;;;;13.10;66.77;100119.40;109365;1254;72644;-82
2023/04/14 11:08:34;;;;;;;10.40;7.60;;;;;;;13.10;66.96;100124.98;108620;1254;70686;-84
2023/04/14 11:11:04;;;;;;;14.30;8.00;;;;;;;13.12;67.03;100125.88;108033;1254;61234;-87
2023/04/14 11:13:33;;;;;;;10.10;7.60;;;;;;;13.15;66.88;100126.42;108088;1254;61296;-87
2023/04/14 11:16:02;;;;;;;10.00;7.70;;;;;;;13.20;67.05;100125.95;107953;1254;74052;-86
2023/04/14 11:18:41;;;;;;;11.70;8.30;;;;;;;13.26;67.18;100129.41;107985;1254;72232;-86
2023/04/14 11:21:18;;;;;;;8.90;7.10;;;;;;;13.33;67.10;100132.92;108043;1254;72729;-86
2023/04/14 11:23:51;;;;;;;10.50;8.00;;;;;;;13.41;67.09;100136.65;108102;1254;61697;-88
2023/04/14 11:26:25;;;;;;;10.10;7.30;;;;;;;13.45;66.95;100140.24;108035;1256;61165;-88
2023/04/14 11:28:56;;;;;;;9.40;7.20;;;;;;;13.48;66.80;100144.13;108148;1254;73825;-87
2023/04/14 11:31:26;;;;;;;9.80;8.00;;;;;;;13.50;66.29;100137.80;108151;1254;73670;-85
2023/04/14 11:33:55;;;;;;;10.20;7.30;;;;;;;13.49;66.10;100138.95;108157;1255;70385;-88
2023/04/14 11:36:25;;;;;;;9.60;7.40;;;;;;;13.47;66.00;100137.44;108130;1254;62278;-87
2023/04/14 11:38:54;;;;;;;11.20;7.40;;;;;;;13.45;66.00;100138.52;108164;1254;61787;-86
2023/04/14 11:41:24;;;;;;;10.70;8.10;;;;;;;13.44;65.99;100133.98;108143;1254;74000;-87
2023/04/14 11:43:54;;;;;;;12.40;7.70;;;;;;;13.44;66.01;100135.43;108101;1254;73627;-86